Terminal Aerodrome Forecast
Issued by NWS Cleveland, OH

Home | Current Version | Previous Version | Graphics & Text | Print | Product List | Glossary On
Versions: 1 2 3 4 5 6 7 8 9 10 11 12 13 14 15 16 17 18 19 20 21 22 23 24 25 26 27 28 29 30 31
000
FTUS41 KCLE 180900 AAA
TAFCLE
TAF AMD
KCLE 180918Z 1809/1912 18005KT P6SM SCT200
     FM181500 33006KT P6SM FEW050 SCT200
     FM181800 02012KT P6SM BKN200
     FM190100 04008KT P6SM BKN200=

USA.gov is the U.S. government's official web portal to all federal, state and local government web resources and services.